Time;durP1;ratioP1;P1;durP2;ratioP2;P2;SDS_P1;SDS_P2;PMS_P1;PMS_P2;Temp;Humidity;BMP_temperature;BMP_pressure;BME280_temperature;BME280_humidity;BME280_pressure;Samples;Min_cycle;Max_cycle;Signal;HPM_P1;HPM_P2
2021/12/09 00:02:18;;;;;;;13.13;6.88;;;;;;;1.05;91.24;100141.13;5070167;28;20036;-70
2021/12/09 00:04:43;;;;;;;14.93;6.82;;;;;;;1.04;91.17;100146.44;5060017;28;20474;-70
2021/12/09 00:07:08;;;;;;;13.00;6.28;;;;;;;1.03;91.28;100152.56;5045490;28;20057;-70
2021/12/09 00:09:34;;;;;;;10.63;6.38;;;;;;;1.02;91.53;100145.66;5058032;28;20044;-70
2021/12/09 00:11:59;;;;;;;12.65;7.13;;;;;;;1.03;90.74;100163.03;5047712;28;20029;-70
2021/12/09 00:14:28;;;;;;;13.10;7.25;;;;;;;1.01;91.77;100157.03;5067356;28;20040;-69
2021/12/09 00:16:57;;;;;;;17.52;7.22;;;;;;;1.01;91.68;100143.97;5051773;28;20029;-70
2021/12/09 00:19:22;;;;;;;18.52;7.88;;;;;;;1.00;91.31;100147.47;5068827;28;20108;-70
2021/12/09 00:21:48;;;;;;;14.75;7.00;;;;;;;0.98;91.64;100144.94;5055115;28;20052;-70
2021/12/09 00:24:13;;;;;;;15.15;7.40;;;;;;;0.97;91.32;100142.44;5064817;28;20082;-70
2021/12/09 00:26:39;;;;;;;12.98;7.55;;;;;;;0.96;91.47;100148.56;5066542;28;20383;-70
2021/12/09 00:29:06;;;;;;;13.70;7.72;;;;;;;0.96;91.46;100157.25;5062748;28;20029;-70
2021/12/09 00:31:31;;;;;;;16.05;7.50;;;;;;;0.96;91.75;100159.03;5046924;28;20365;-70
2021/12/09 00:33:59;;;;;;;13.35;7.22;;;;;;;0.92;91.68;100145.25;5068648;28;20021;-70
2021/12/09 00:36:27;;;;;;;14.05;6.93;;;;;;;0.92;91.36;100160.94;5056620;28;20067;-70
2021/12/09 00:38:58;;;;;;;12.05;7.07;;;;;;;0.90;91.56;100161.00;5053998;28;20120;-70
2021/12/09 00:41:23;;;;;;;14.25;7.03;;;;;;;0.91;91.94;100159.25;5064107;28;20056;-70
2021/12/09 00:43:49;;;;;;;12.10;6.70;;;;;;;0.90;91.79;100165.41;5070507;28;20083;-70
2021/12/09 00:46:15;;;;;;;12.77;6.80;;;;;;;0.89;91.49;100153.25;5050594;28;20455;-70
2021/12/09 00:48:41;;;;;;;15.95;7.18;;;;;;;0.90;91.84;100157.56;5063578;28;20111;-70
2021/12/09 00:51:07;;;;;;;10.30;6.93;;;;;;;0.92;92.12;100151.31;5054105;28;20099;-70
2021/12/09 00:53:33;;;;;;;16.33;7.85;;;;;;;0.92;92.26;100153.94;5071226;28;20041;-69
2021/12/09 00:55:59;;;;;;;14.05;7.75;;;;;;;0.93;92.22;100162.63;5057717;28;20021;-70
2021/12/09 00:58:24;;;;;;;15.60;7.35;;;;;;;0.94;92.30;100159.09;5061815;28;20051;-70
2021/12/09 01:00:50;;;;;;;13.82;6.93;;;;;;;0.95;92.06;100152.09;5062206;28;20024;-70
2021/12/09 01:03:16;;;;;;;15.98;6.90;;;;;;;0.95;91.83;100160.81;5063719;28;20067;-70
2021/12/09 01:05:44;;;;;;;15.02;7.30;;;;;;;0.94;91.88;100159.09;5057813;28;20525;-70
2021/12/09 01:08:10;;;;;;;14.43;7.07;;;;;;;0.96;91.91;100164.25;5050101;28;20036;-70
2021/12/09 01:10:36;;;;;;;15.18;7.20;;;;;;;0.95;91.97;100170.41;5050745;28;20545;-70
2021/12/09 01:13:03;;;;;;;15.10;7.00;;;;;;;0.94;91.94;100166.94;5045270;28;20138;-70
2021/12/09 01:15:28;;;;;;;17.55;7.38;;;;;;;0.92;91.81;100167.00;5059346;28;20467;-70
2021/12/09 01:17:54;;;;;;;11.32;7.05;;;;;;;0.91;91.95;100173.16;5051565;28;20024;-70
2021/12/09 01:20:24;;;;;;;11.50;6.82;;;;;;;0.91;91.70;100174.94;5067317;28;20039;-70
2021/12/09 01:22:53;;;;;;;14.30;6.72;;;;;;;0.90;91.57;100170.63;5069921;28;20024;-70
2021/12/09 01:25:18;;;;;;;12.13;7.35;;;;;;;0.90;92.29;100174.09;5057731;28;20103;-70
2021/12/09 01:27:46;;;;;;;14.07;6.32;;;;;;;0.88;91.96;100169.84;5067972;28;20130;-70
2021/12/09 01:30:17;;;;;;;13.38;7.20;;;;;;;0.87;91.74;100170.78;5062521;28;20421;-70
2021/12/09 01:32:49;;;;;;;13.85;6.88;;;;;;;0.86;92.02;100179.53;5061180;28;20028;-70
2021/12/09 01:35:16;;;;;;;14.30;6.80;;;;;;;0.84;91.79;100170.91;5045480;28;20032;-69
2021/12/09 01:37:41;;;;;;;12.95;7.10;;;;;;;0.82;92.03;100167.53;5059766;28;20031;-70
2021/12/09 01:40:08;;;;;;;16.50;6.88;;;;;;;0.81;91.76;100171.91;5067844;28;20453;-70
2021/12/09 01:42:34;;;;;;;14.65;6.68;;;;;;;0.80;91.90;100179.81;5058928;28;20056;-70
2021/12/09 01:44:59;;;;;;;11.30;6.82;;;;;;;0.79;91.91;100175.50;5044641;28;20195;-70
2021/12/09 01:47:25;;;;;;;18.98;7.38;;;;;;;0.78;92.12;100171.19;5064213;28;20021;-70
2021/12/09 01:49:50;;;;;;;15.52;7.35;;;;;;;0.77;91.79;100172.09;5058889;28;20032;-69
2021/12/09 01:52:15;;;;;;;14.48;7.55;;;;;;;0.77;92.11;100165.13;5069135;28;20082;-70
2021/12/09 01:54:41;;;;;;;12.57;6.90;;;;;;;0.75;92.25;100169.59;5069122;28;20036;-70
2021/12/09 01:57:07;;;;;;;16.65;7.18;;;;;;;0.77;91.78;100159.91;5049030;28;20036;-70
2021/12/09 01:59:33;;;;;;;13.27;6.32;;;;;;;0.75;92.07;100169.59;5053055;28;20053;-70
2021/12/09 02:01:59;;;;;;;14.15;7.32;;;;;;;0.74;92.13;100167.88;5058935;28;20024;-70
2021/12/09 02:04:25;;;;;;;14.70;6.28;;;;;;;0.73;92.10;100169.66;5063592;28;20035;-70
2021/12/09 02:06:51;;;;;;;14.60;6.75;;;;;;;0.72;91.94;100162.72;5059434;28;20097;-70
2021/12/09 02:09:17;;;;;;;14.20;6.93;;;;;;;0.69;92.16;100162.03;5051262;28;20060;-70
2021/12/09 02:11:42;;;;;;;14.18;6.57;;;;;;;0.72;92.21;100161.88;5058948;28;20025;-70
2021/12/09 02:14:08;;;;;;;11.88;6.70;;;;;;;0.70;92.02;100156.72;5055061;28;20087;-70
2021/12/09 02:16:34;;;;;;;14.75;7.30;;;;;;;0.70;92.36;100161.09;5052269;28;20028;-70
2021/12/09 02:18:59;;;;;;;18.73;6.90;;;;;;;0.69;92.23;100162.88;5052220;28;20028;-70
2021/12/09 02:21:31;;;;;;;14.18;7.13;;;;;;;0.68;92.32;100162.94;5055907;28;20133;-70
2021/12/09 02:24:00;;;;;;;10.18;6.15;;;;;;;0.67;92.09;100164.72;5068410;28;20036;-70
2021/12/09 02:26:29;;;;;;;14.88;7.00;;;;;;;0.64;91.95;100158.78;5064256;28;20037;-70
2021/12/09 02:28:56;;;;;;;13.40;6.80;;;;;;;0.65;92.09;100157.84;5049019;28;20025;-70
2021/12/09 02:31:23;;;;;;;15.48;7.32;;;;;;;0.62;91.92;100152.78;5054557;28;20467;-70
2021/12/09 02:33:48;;;;;;;13.40;6.95;;;;;;;0.60;92.04;100151.97;5069898;28;20055;-70
2021/12/09 02:36:13;;;;;;;15.40;6.65;;;;;;;0.60;92.11;100149.38;5056187;28;20037;-70
2021/12/09 02:38:44;;;;;;;16.23;6.93;;;;;;;0.57;91.86;100157.34;5052512;28;20086;-70
2021/12/09 02:41:17;;;;;;;14.50;7.15;;;;;;;0.57;92.35;100155.59;5049639;28;20031;-71
2021/12/09 02:44:02;;;;;;;13.93;6.55;;;;;;;0.56;91.92;100156.50;5057989;28;20028;-69
2021/12/09 02:46:34;;;;;;;13.25;5.82;;;;;;;0.55;92.20;100158.28;5043776;28;20449;-70
2021/12/09 02:49:00;;;;;;;14.63;6.68;;;;;;;0.55;92.26;100153.06;5036346;28;20029;-70
2021/12/09 02:51:25;;;;;;;14.20;6.00;;;;;;;0.55;92.41;100153.06;5037566;28;20080;-69
2021/12/09 02:53:50;;;;;;;13.50;6.32;;;;;;;0.52;92.25;100150.59;5062178;28;20033;-69
2021/12/09 02:56:15;;;;;;;12.35;6.22;;;;;;;0.53;92.43;100157.50;5060734;28;20479;-70
2021/12/09 02:58:41;;;;;;;15.82;6.43;;;;;;;0.51;92.20;100164.56;5069361;28;20085;-69
2021/12/09 03:01:16;;;;;;;16.38;6.85;;;;;;;0.52;92.40;100155.81;5053453;28;20052;-69
2021/12/09 03:03:53;;;;;;;14.05;6.50;;;;;;;0.52;92.61;100163.66;5054592;28;20031;-69
2021/12/09 03:06:21;;;;;;;9.60;6.15;;;;;;;0.51;92.75;100169.78;5061387;28;20038;-70
2021/12/09 03:08:46;;;;;;;17.52;6.55;;;;;;;0.51;92.63;100175.00;5063993;28;20050;-70
2021/12/09 03:11:21;;;;;;;14.10;6.43;;;;;;;0.53;92.60;100175.81;5072766;28;20024;-69
2021/12/09 03:13:48;;;;;;;15.50;6.55;;;;;;;0.51;92.91;100172.41;5061539;28;20491;-69
2021/12/09 03:16:13;;;;;;;14.90;6.28;;;;;;;0.50;92.45;100181.16;5039336;28;20082;-69
2021/12/09 03:18:45;;;;;;;12.60;6.28;;;;;;;0.48;92.57;100180.41;5063463;28;20025;-69
2021/12/09 03:21:19;;;;;;;12.38;6.03;;;;;;;0.48;92.68;100182.13;5069146;28;20088;-69
2021/12/09 03:23:45;;;;;;;13.88;6.00;;;;;;;0.47;92.45;100196.13;5054031;28;20637;-70
2021/12/09 03:26:11;;;;;;;12.30;6.22;;;;;;;0.46;92.19;100197.88;5048964;28;20108;-69
2021/12/09 03:28:37;;;;;;;13.52;5.63;;;;;;;0.42;92.45;100198.94;5052651;28;20074;-69
2021/12/09 03:31:03;;;;;;;9.95;5.97;;;;;;;0.41;92.45;100197.25;5052385;28;20428;-69
2021/12/09 03:33:28;;;;;;;11.20;5.70;;;;;;;0.41;92.79;100193.78;5052773;28;20035;-70
2021/12/09 03:36:02;;;;;;;13.77;6.25;;;;;;;0.40;93.05;100185.13;5050598;28;20402;-69
2021/12/09 03:38:28;;;;;;;14.88;6.20;;;;;;;0.40;92.89;100184.25;5072250;28;20020;-70
2021/12/09 03:40:55;;;;;;;12.95;6.25;;;;;;;0.36;92.49;100199.22;5050703;28;20029;-70
2021/12/09 03:43:21;;;;;;;13.80;5.72;;;;;;;0.36;92.64;100194.00;5068013;28;20440;-69
2021/12/09 03:45:48;;;;;;;12.23;5.55;;;;;;;0.35;92.27;100202.72;5064022;28;20029;-69
2021/12/09 03:48:14;;;;;;;18.15;6.95;;;;;;;0.34;92.55;100209.72;5067075;28;20035;-69
2021/12/09 03:50:39;;;;;;;14.10;5.65;;;;;;;0.33;92.54;100209.78;5062326;28;20033;-69
2021/12/09 03:53:04;;;;;;;14.90;6.47;;;;;;;0.32;92.43;100210.75;5072264;28;20420;-69
2021/12/09 03:55:30;;;;;;;12.95;5.63;;;;;;;0.31;92.67;100207.25;5044541;28;20437;-69
2021/12/09 03:57:55;;;;;;;13.82;5.65;;;;;;;0.29;92.44;100210.88;5057219;28;20036;-69
2021/12/09 04:00:23;;;;;;;12.52;5.18;;;;;;;0.28;92.58;100217.84;5057984;28;20044;-69
2021/12/09 04:02:49;;;;;;;13.65;5.45;;;;;;;0.28;92.59;100214.38;5052032;28;20040;-69
2021/12/09 04:05:15;;;;;;;12.02;5.93;;;;;;;0.25;92.66;100211.91;5071817;28;20017;-70
2021/12/09 04:07:40;;;;;;;12.48;5.50;;;;;;;0.26;92.36;100209.22;5071958;28;20039;-69
2021/12/09 04:10:07;;;;;;;16.73;5.90;;;;;;;0.24;92.62;100191.94;5058902;28;20049;-69
2021/12/09 04:12:32;;;;;;;12.82;5.55;;;;;;;0.22;92.90;100186.78;5054133;28;20466;-70
2021/12/09 04:14:57;;;;;;;16.55;6.10;;;;;;;0.21;92.78;100200.75;5063479;28;20292;-69
2021/12/09 04:17:22;;;;;;;13.77;5.60;;;;;;;0.22;92.66;100204.19;5051816;28;20029;-69
2021/12/09 04:19:48;;;;;;;10.75;5.13;;;;;;;0.21;92.55;100205.97;5067605;28;20032;-69
2021/12/09 04:22:16;;;;;;;10.05;5.55;;;;;;;0.20;92.79;100200.81;5063649;28;20111;-69
2021/12/09 04:24:41;;;;;;;17.13;5.88;;;;;;;0.20;92.63;100206.91;5046072;28;20700;-69
2021/12/09 04:27:06;;;;;;;15.40;5.25;;;;;;;0.19;92.51;100202.59;5071702;28;20020;-69
2021/12/09 04:29:32;;;;;;;12.60;5.25;;;;;;;0.17;92.65;100207.88;5052257;28;20483;-69
2021/12/09 04:31:57;;;;;;;11.50;5.07;;;;;;;0.18;92.54;100211.31;5051387;28;20490;-68
2021/12/09 04:34:22;;;;;;;11.90;5.18;;;;;;;0.20;92.79;100211.25;5063873;28;20467;-69
2021/12/09 04:36:49;;;;;;;13.13;5.13;;;;;;;0.17;92.88;100205.25;5049131;28;20079;-69
2021/12/09 04:39:15;;;;;;;12.13;4.78;;;;;;;0.17;93.05;100218.31;5071119;28;20033;-69
2021/12/09 04:41:40;;;;;;;13.02;5.55;;;;;;;0.17;92.82;100213.09;5058956;28;20040;-69
2021/12/09 04:44:07;;;;;;;13.05;5.43;;;;;;;0.16;92.92;100215.78;5051246;28;20051;-69
2021/12/09 04:46:32;;;;;;;11.10;5.82;;;;;;;0.17;92.83;100218.31;5051272;28;20029;-69
2021/12/09 04:48:58;;;;;;;11.05;5.38;;;;;;;0.17;93.04;100218.31;5051164;28;20025;-69
2021/12/09 04:51:23;;;;;;;16.48;5.40;;;;;;;0.17;92.88;100215.69;5049806;28;20130;-69
2021/12/09 04:53:48;;;;;;;11.63;4.80;;;;;;;0.16;93.04;100223.59;5051570;28;20028;-69
2021/12/09 04:56:14;;;;;;;8.93;4.82;;;;;;;0.15;92.65;100217.53;5039139;28;20037;-69
2021/12/09 04:58:39;;;;;;;16.83;5.20;;;;;;;0.14;92.62;100220.22;5031126;28;20018;-69
2021/12/09 05:01:06;;;;;;;11.93;4.32;;;;;;;0.14;93.04;100225.44;5031173;28;20030;-69
2021/12/09 05:03:31;;;;;;;11.60;4.80;;;;;;;0.14;92.78;100215.00;5031386;28;20032;-69
2021/12/09 05:05:57;;;;;;;12.77;4.70;;;;;;;0.12;93.06;100212.44;5030757;28;20030;-69
2021/12/09 05:08:27;;;;;;;11.70;5.13;;;;;;;0.12;93.04;100212.44;5029211;28;20380;-69
2021/12/09 05:11:11;;;;;;;12.07;4.97;;;;;;;0.15;93.13;100216.66;5031134;28;20033;-68
2021/12/09 05:13:38;;;;;;;13.38;5.07;;;;;;;0.16;93.06;100226.22;5031403;28;20087;-68
2021/12/09 05:16:05;;;;;;;9.80;4.82;;;;;;;0.15;93.58;100224.50;5051081;28;20519;-68
2021/12/09 05:18:33;;;;;;;14.07;5.45;;;;;;;0.15;93.37;100233.22;5070839;28;20048;-68
2021/12/09 05:20:59;;;;;;;14.25;5.03;;;;;;;0.15;93.41;100235.81;5040158;28;20060;-69
2021/12/09 05:23:24;;;;;;;14.95;5.13;;;;;;;0.15;92.95;100234.94;5068672;28;20473;-68
2021/12/09 05:25:50;;;;;;;13.57;4.95;;;;;;;0.14;93.10;100233.28;5064354;28;20116;-68
2021/12/09 05:28:17;;;;;;;10.38;4.88;;;;;;;0.14;93.13;100238.50;5029259;28;20098;-68
2021/12/09 05:33:32;;;;;;;14.40;5.45;;;;;;;0.12;93.06;100232.50;5030805;28;20477;-69
2021/12/09 05:35:58;;;;;;;15.57;5.18;;;;;;;0.12;93.18;100235.94;5030455;28;20034;-69
2021/12/09 05:38:24;;;;;;;14.38;5.47;;;;;;;0.11;93.17;100236.00;5030667;28;20029;-69
2021/12/09 05:40:49;;;;;;;10.38;4.97;;;;;;;0.11;93.02;100239.47;5030362;28;20030;-69
2021/12/09 05:43:15;;;;;;;12.02;5.70;;;;;;;0.08;93.30;100242.19;5030398;28;20037;-69
2021/12/09 05:45:42;;;;;;;15.02;5.93;;;;;;;0.10;93.38;100247.34;5030322;28;20129;-68
2021/12/09 05:48:09;;;;;;;18.45;5.50;;;;;;;0.10;93.35;100249.97;5030184;28;20037;-69
2021/12/09 05:50:35;;;;;;;10.88;5.15;;;;;;;0.09;93.24;100254.34;5030326;28;20113;-68
2021/12/09 05:53:00;;;;;;;15.32;5.57;;;;;;;0.09;93.25;100254.34;5029345;28;20112;-68
2021/12/09 05:55:26;;;;;;;11.57;5.20;;;;;;;0.09;93.29;100250.91;5029561;28;20060;-68
2021/12/09 05:57:51;;;;;;;13.07;5.32;;;;;;;0.08;93.46;100249.19;5027917;28;20033;-69
2021/12/09 06:00:17;;;;;;;12.27;5.30;;;;;;;0.07;93.21;100252.75;5028841;28;20025;-69
2021/12/09 06:02:42;;;;;;;15.63;5.75;;;;;;;0.07;93.57;100248.34;5029978;28;20037;-68
2021/12/09 06:05:08;;;;;;;13.63;5.95;;;;;;;0.06;94.06;100256.25;5030055;28;20064;-69
2021/12/09 06:07:33;;;;;;;11.80;5.30;;;;;;;0.06;93.54;100253.63;5030284;28;20126;-69
2021/12/09 06:10:00;;;;;;;12.43;5.45;;;;;;;0.04;93.29;100253.69;5030024;28;20500;-68
2021/12/09 06:12:26;;;;;;;13.52;5.95;;;;;;;0.05;93.31;100251.94;5030259;28;20022;-68
2021/12/09 06:14:51;;;;;;;12.85;5.60;;;;;;;0.03;93.78;100248.53;5037447;28;20075;-68
2021/12/09 06:17:16;;;;;;;14.82;5.68;;;;;;;0.03;93.65;100249.38;5062407;28;20032;-68
2021/12/09 06:19:42;;;;;;;12.48;5.38;;;;;;;0.02;93.45;100258.16;5069916;28;20032;-69
2021/12/09 06:22:07;;;;;;;12.48;5.30;;;;;;;0.03;93.68;100251.16;5054951;28;20033;-68
2021/12/09 06:24:32;;;;;;;11.15;5.65;;;;;;;0.02;93.81;100246.84;5063760;28;20025;-69
2021/12/09 06:26:59;;;;;;;12.32;5.47;;;;;;;0.01;93.73;100251.22;5058821;28;20045;-68
2021/12/09 06:29:24;;;;;;;13.48;5.82;;;;;;;-0.01;93.81;100243.44;5066782;28;20020;-68
2021/12/09 06:31:50;;;;;;;15.13;6.38;;;;;;;0.00;93.79;100244.31;5068671;28;20482;-68
2021/12/09 06:34:15;;;;;;;11.20;5.70;;;;;;;0.00;93.61;100244.31;5058887;28;20029;-69
2021/12/09 06:36:41;;;;;;;16.63;6.72;;;;;;;0.00;93.90;100257.38;5055909;28;20033;-68
2021/12/09 06:39:07;;;;;;;14.77;5.97;;;;;;;-0.01;93.59;100264.34;5073388;28;20067;-68
2021/12/09 06:41:32;;;;;;;13.38;6.03;;;;;;;-0.01;93.95;100253.06;5060905;28;20021;-68
2021/12/09 06:43:58;;;;;;;15.65;6.13;;;;;;;-0.01;93.86;100263.50;5070021;28;20029;-68
2021/12/09 06:46:23;;;;;;;10.48;5.78;;;;;;;-0.03;93.98;100266.16;5043756;28;20030;-69
2021/12/09 06:48:48;;;;;;;16.42;6.55;;;;;;;-0.03;94.00;100266.16;5055530;28;20509;-69
2021/12/09 06:51:14;;;;;;;15.68;6.53;;;;;;;-0.02;94.01;100261.78;5064859;28;20388;-68
2021/12/09 06:53:39;;;;;;;13.77;5.97;;;;;;;-0.02;93.82;100269.63;5041649;28;20379;-68
2021/12/09 06:56:06;;;;;;;11.07;5.65;;;;;;;-0.03;93.98;100263.56;5061777;28;20370;-68
2021/12/09 06:58:33;;;;;;;13.93;6.25;;;;;;;-0.04;94.28;100259.25;5050695;28;20022;-68
2021/12/09 07:01:00;;;;;;;12.68;5.80;;;;;;;-0.04;94.33;100261.00;5057874;28;20036;-68
2021/12/09 07:03:26;;;;;;;21.30;6.45;;;;;;;-0.05;94.02;100265.38;5070835;28;20017;-68
2021/12/09 07:05:52;;;;;;;14.98;6.50;;;;;;;-0.07;94.11;100269.81;5054805;28;20028;-69
2021/12/09 07:08:19;;;;;;;17.20;6.40;;;;;;;-0.06;94.39;100268.91;5059128;28;20287;-69
2021/12/09 07:10:45;;;;;;;11.65;5.30;;;;;;;-0.05;94.26;100272.34;5073104;28;20028;-69
2021/12/09 07:13:11;;;;;;;12.77;5.70;;;;;;;-0.06;94.43;100275.91;5072703;28;20025;-69
2021/12/09 07:15:37;;;;;;;10.85;5.25;;;;;;;-0.07;94.34;100280.25;5061998;28;20055;-69
2021/12/09 07:18:03;;;;;;;13.13;5.93;;;;;;;-0.06;94.55;100278.50;5065866;28;20497;-68
2021/12/09 07:20:28;;;;;;;14.88;5.95;;;;;;;-0.08;94.08;100275.13;5046320;28;20030;-69
2021/12/09 07:22:55;;;;;;;12.27;5.30;;;;;;;-0.07;94.57;100277.63;5062200;28;20116;-69
2021/12/09 07:25:22;;;;;;;13.35;6.45;;;;;;;-0.07;94.59;100279.41;5065057;28;20099;-69
2021/12/09 07:27:48;;;;;;;15.20;6.00;;;;;;;-0.10;94.59;100272.56;5056709;28;20029;-67
2021/12/09 07:30:16;;;;;;;12.88;5.75;;;;;;;-0.08;94.70;100273.34;5070053;28;20032;-69
2021/12/09 07:32:42;;;;;;;13.48;5.50;;;;;;;-0.08;94.67;100269.91;5072384;28;20086;-69
2021/12/09 07:35:10;;;;;;;12.10;6.15;;;;;;;-0.11;94.32;100265.63;5072173;28;20704;-69
2021/12/09 07:37:38;;;;;;;16.10;5.85;;;;;;;-0.09;94.19;100270.78;5055573;28;20411;-69
2021/12/09 07:40:06;;;;;;;18.67;6.65;;;;;;;-0.05;94.31;100282.78;5068414;28;20111;-69
2021/12/09 07:42:32;;;;;;;13.20;6.18;;;;;;;-0.06;94.68;100281.13;5057162;28;20391;-69
2021/12/09 07:44:58;;;;;;;14.25;5.97;;;;;;;-0.04;94.81;100282.72;5033902;28;20696;-67
2021/12/09 07:47:23;;;;;;;15.88;6.70;;;;;;;-0.04;94.73;100284.50;5046531;28;20459;-69
2021/12/09 07:49:49;;;;;;;18.38;6.70;;;;;;;-0.03;94.68;100287.06;5044655;28;20481;-69
2021/12/09 07:52:15;;;;;;;14.25;5.95;;;;;;;-0.03;94.58;100287.06;5042988;28;20131;-69
2021/12/09 07:54:40;;;;;;;16.85;6.10;;;;;;;0.02;94.74;100288.59;5036979;28;20477;-69
2021/12/09 07:57:05;;;;;;;12.35;5.70;;;;;;;0.00;94.97;100291.31;5032978;28;20112;-69
2021/12/09 07:59:31;;;;;;;19.10;6.00;;;;;;;0.02;94.67;100284.25;5034706;28;20056;-69
2021/12/09 08:01:56;;;;;;;13.75;6.07;;;;;;;0.01;94.76;100289.53;5031553;28;20096;-69
2021/12/09 08:04:21;;;;;;;11.88;6.05;;;;;;;0.01;94.89;100289.53;5045345;28;20033;-69
2021/12/09 08:06:47;;;;;;;12.30;6.22;;;;;;;0.01;94.94;100298.22;5044432;28;20048;-69
2021/12/09 08:09:12;;;;;;;14.43;6.22;;;;;;;0.03;94.88;100295.53;5053172;28;20461;-69
2021/12/09 08:11:38;;;;;;;14.70;6.50;;;;;;;0.05;94.88;100307.63;5047668;28;20041;-69
2021/12/09 08:14:09;;;;;;;14.23;6.20;;;;;;;0.08;95.16;100310.09;5043096;28;20041;-70
2021/12/09 08:16:37;;;;;;;15.35;6.13;;;;;;;0.12;95.14;100310.84;5032916;28;20495;-70
2021/12/09 08:19:10;;;;;;;13.63;6.65;;;;;;;0.16;95.25;100317.63;5033133;28;20091;-70
2021/12/09 08:21:37;;;;;;;15.00;6.28;;;;;;;0.21;95.21;100310.44;5038186;28;20020;-70
2021/12/09 08:24:05;;;;;;;14.20;6.90;;;;;;;0.25;95.70;100311.16;5034222;28;20060;-70
2021/12/09 08:26:31;;;;;;;16.25;6.45;;;;;;;0.29;95.50;100312.72;5034911;28;20021;-70
2021/12/09 08:28:57;;;;;;;17.45;6.63;;;;;;;0.33;95.16;100306.44;5037397;28;20048;-70
2021/12/09 08:31:22;;;;;;;18.10;6.88;;;;;;;0.36;95.43;100311.53;5059979;28;20386;-70
2021/12/09 08:33:48;;;;;;;17.20;6.82;;;;;;;0.39;95.22;100311.41;5070761;28;20439;-71
2021/12/09 08:36:13;;;;;;;11.93;6.25;;;;;;;0.42;95.00;100302.59;5065081;28;20043;-70
2021/12/09 08:38:38;;;;;;;13.23;6.50;;;;;;;0.46;95.31;100307.63;5039301;28;20041;-71
2021/12/09 08:41:04;;;;;;;14.23;6.03;;;;;;;0.50;95.19;100311.81;5037738;28;20036;-71
2021/12/09 08:43:30;;;;;;;17.20;6.20;;;;;;;0.52;95.33;100303.91;5037635;28;20484;-71
2021/12/09 08:45:56;;;;;;;15.95;6.55;;;;;;;0.54;95.33;100302.91;5036061;28;20056;-71
2021/12/09 08:48:23;;;;;;;14.25;6.13;;;;;;;0.58;95.47;100318.47;5034470;28;20076;-71
2021/12/09 08:50:49;;;;;;;15.50;6.50;;;;;;;0.61;95.36;100313.94;5032368;28;20132;-71
2021/12/09 08:53:17;;;;;;;17.02;7.15;;;;;;;0.66;95.33;100311.97;5030969;28;20476;-71
2021/12/09 08:55:43;;;;;;;14.18;6.78;;;;;;;0.70;95.09;100316.16;5048362;28;20017;-70
2021/12/09 08:58:10;;;;;;;18.00;6.50;;;;;;;0.74;95.02;100316.88;5048014;28;20067;-70
2021/12/09 09:00:36;;;;;;;19.00;7.25;;;;;;;0.78;94.81;100310.56;5049677;28;20029;-70
2021/12/09 09:03:03;;;;;;;15.13;6.90;;;;;;;0.82;95.28;100320.00;5047924;28;20044;-71
2021/12/09 09:05:30;;;;;;;13.80;7.00;;;;;;;0.86;95.16;100324.16;5046533;28;20072;-71
2021/12/09 09:07:55;;;;;;;15.18;6.75;;;;;;;0.91;94.91;100327.41;5051727;28;20158;-71
2021/12/09 09:10:24;;;;;;;15.95;7.32;;;;;;;0.96;94.97;100323.75;5050533;28;20028;-72
2021/12/09 09:12:50;;;;;;;11.65;5.82;;;;;;;1.00;94.85;100320.94;5052182;28;20040;-71
2021/12/09 09:15:18;;;;;;;14.30;6.53;;;;;;;1.03;94.71;100319.94;5041940;28;20091;-72
2021/12/09 09:17:45;;;;;;;14.95;6.95;;;;;;;1.08;94.59;100318.84;5053590;28;20135;-71
2021/12/09 09:20:13;;;;;;;13.63;7.15;;;;;;;1.11;94.59;100309.97;5048905;28;20033;-71
2021/12/09 09:22:39;;;;;;;14.85;7.07;;;;;;;1.19;94.79;100320.09;5061275;28;20036;-71
2021/12/09 09:25:07;;;;;;;17.50;6.90;;;;;;;1.22;94.42;100314.72;5048969;28;20044;-72
2021/12/09 09:27:32;;;;;;;12.43;6.70;;;;;;;1.28;94.37;100314.44;5056717;28;20021;-71
2021/12/09 09:29:58;;;;;;;17.13;6.97;;;;;;;1.32;94.79;100315.16;5050254;28;20414;-71
2021/12/09 09:32:24;;;;;;;16.25;7.10;;;;;;;1.34;94.86;100318.53;5063474;28;20029;-71
2021/12/09 09:34:49;;;;;;;18.45;7.03;;;;;;;1.40;94.75;100328.69;5055226;28;20105;-71
2021/12/09 09:37:15;;;;;;;13.45;6.82;;;;;;;1.43;94.26;100320.72;5052571;28;20032;-71
2021/12/09 09:39:43;;;;;;;16.27;6.82;;;;;;;1.47;94.33;100323.13;5069567;28;20534;-70
2021/12/09 09:44:46;;;;;;;14.32;6.70;;;;;;;1.55;94.52;100321.91;5036915;28;20128;-70
2021/12/09 09:47:12;;;;;;;16.95;7.88;;;;;;;1.60;94.41;100325.13;5044515;28;20023;-70
2021/12/09 09:49:38;;;;;;;12.45;7.00;;;;;;;1.63;94.02;100322.38;5057415;28;20033;-70
2021/12/09 09:52:05;;;;;;;14.35;7.57;;;;;;;1.66;93.68;100332.72;5047611;28;20032;-72
2021/12/09 09:54:31;;;;;;;11.95;7.32;;;;;;;1.70;93.98;100338.63;5040099;28;20038;-72
2021/12/09 09:56:56;;;;;;;17.60;7.85;;;;;;;1.71;93.76;100335.94;5031783;28;20091;-72
2021/12/09 09:59:22;;;;;;;13.90;7.82;;;;;;;1.75;94.06;100334.91;5043948;28;20490;-72
2021/12/09 10:01:52;;;;;;;18.88;7.20;;;;;;;1.78;93.65;100339.13;5039702;28;20029;-72
2021/12/09 10:04:32;;;;;;;13.30;6.80;;;;;;;1.82;93.77;100344.16;5037401;28;20037;-72
2021/12/09 10:06:58;;;;;;;15.70;7.25;;;;;;;1.88;93.92;100334.28;5039478;28;20040;-72
2021/12/09 10:09:23;;;;;;;14.60;7.15;;;;;;;1.92;93.50;100334.06;5049485;28;20049;-72
2021/12/09 10:11:48;;;;;;;11.98;7.25;;;;;;;1.97;93.63;100336.47;5054702;28;20352;-73
2021/12/09 10:14:18;;;;;;;17.67;7.78;;;;;;;1.99;93.65;100334.63;5046858;28;20041;-72
2021/12/09 10:16:45;;;;;;;11.57;7.00;;;;;;;2.03;93.63;100337.03;5044156;28;20082;-72
2021/12/09 10:19:29;;;;;;;16.27;7.28;;;;;;;2.10;93.67;100328.84;5052274;28;20048;-72
2021/12/09 10:22:06;;;;;;;17.35;7.45;;;;;;;2.14;93.77;100315.53;5046496;28;20025;-73
2021/12/09 10:24:32;;;;;;;19.63;6.88;;;;;;;2.19;93.56;100312.69;5063630;28;20041;-73
2021/12/09 10:26:57;;;;;;;14.75;6.82;;;;;;;2.26;93.56;100310.59;5054090;28;20028;-73
2021/12/09 10:29:30;;;;;;;14.32;7.05;;;;;;;2.29;93.46;100313.91;5061512;28;20147;-72
2021/12/09 10:32:02;;;;;;;12.70;6.75;;;;;;;2.34;93.08;100318.91;5063982;28;20046;-72
2021/12/09 10:37:01;;;;;;;12.57;6.97;;;;;;;2.39;92.71;100307.25;5062737;28;20033;-72
2021/12/09 10:39:26;;;;;;;15.35;6.95;;;;;;;2.40;92.57;100306.34;5050321;28;20045;-72
2021/12/09 10:41:54;;;;;;;16.37;6.87;;;;;;;2.42;92.48;100308.91;5065824;28;20055;-72
2021/12/09 10:44:34;;;;;;;13.07;7.13;;;;;;;2.47;92.30;100304.25;5058039;28;20051;-72
2021/12/09 10:47:13;;;;;;;13.23;7.30;;;;;;;2.49;92.56;100314.66;5041981;28;20036;-72
2021/12/09 10:50:11;;;;;;;8.93;6.68;;;;;;;2.52;92.37;100317.97;5040250;28;20029;-71
2021/12/09 10:52:44;;;;;;;12.10;6.40;;;;;;;2.55;92.56;100322.22;5063475;28;20029;-72
2021/12/09 10:55:16;;;;;;;13.82;6.68;;;;;;;2.56;92.04;100321.28;5069537;28;20382;-71
2021/12/09 10:57:43;;;;;;;12.35;6.80;;;;;;;2.58;91.89;100319.41;5067317;28;20033;-72
2021/12/09 11:00:20;;;;;;;13.70;6.78;;;;;;;2.62;92.05;100323.59;5041559;28;20045;-72
2021/12/09 11:03:00;;;;;;;13.30;7.25;;;;;;;2.65;92.33;100323.44;5041171;28;20020;-72
2021/12/09 11:05:26;;;;;;;14.07;7.40;;;;;;;2.68;92.29;100320.66;5068374;28;20072;-72
2021/12/09 11:07:52;;;;;;;13.13;6.95;;;;;;;2.70;92.31;100315.34;5067501;28;20039;-73
2021/12/09 11:10:23;;;;;;;10.68;6.68;;;;;;;2.74;92.26;100309.00;5071789;28;20323;-72
2021/12/09 11:12:55;;;;;;;11.10;6.60;;;;;;;2.75;91.66;100302.81;5059129;28;20025;-72
2021/12/09 11:15:22;;;;;;;13.07;6.35;;;;;;;2.80;91.80;100310.44;5032596;28;20047;-72
2021/12/09 11:17:50;;;;;;;12.32;7.18;;;;;;;2.84;91.73;100304.09;5072772;28;20021;-72
2021/12/09 11:20:42;;;;;;;14.20;7.07;;;;;;;2.86;91.62;100300.47;5071130;28;20387;-72
2021/12/09 11:23:25;;;;;;;10.00;6.18;;;;;;;2.91;91.88;100292.34;5060154;28;20024;-72
2021/12/09 11:25:51;;;;;;;8.63;6.32;;;;;;;2.93;91.74;100290.47;5056070;28;20371;-73
2021/12/09 11:28:16;;;;;;;10.15;6.68;;;;;;;2.96;91.67;100293.81;5068824;28;20036;-71
2021/12/09 11:31:16;;;;;;;10.15;6.10;;;;;;;3.02;91.77;100289.16;5043168;28;20403;-72
2021/12/09 11:33:45;;;;;;;12.68;6.50;;;;;;;3.05;91.56;100289.84;5048205;28;20112;-72